createdAt,value
2018-06-29T00:00:09.235Z,82.1
2018-06-29T00:01:09.488Z,82.63
2018-06-29T00:02:09.481Z,82.97
2018-06-29T00:03:09.486Z,83.07
2018-06-29T00:04:09.472Z,82.97
2018-06-29T00:05:09.475Z,83.07
2018-06-29T00:06:09.472Z,83.16
2018-06-29T00:07:09.463Z,83.07
2018-06-29T00:08:09.463Z,82.78
2018-06-29T00:09:09.455Z,83.26
2018-06-29T00:10:09.202Z,83.45
2018-06-29T00:11:09.555Z,83.26
2018-06-29T00:12:09.449Z,82.59
2018-06-29T00:13:09.190Z,82.4
2018-06-29T00:14:09.189Z,82.4
2018-06-29T00:15:09.436Z,82.49
2018-06-29T00:16:09.433Z,82.49
2018-06-29T00:17:09.433Z,82.3
2018-06-29T00:18:09.422Z,82.1
2018-06-29T00:19:09.421Z,82.3
2018-06-29T00:20:09.415Z,82.3
2018-06-29T00:21:09.420Z,82.68
2018-06-29T00:22:09.407Z,82.2
2018-06-29T00:23:09.409Z,82.68
2018-06-29T00:24:09.401Z,83.16
2018-06-29T00:25:09.398Z,82.87
2018-06-29T00:26:09.407Z,82.97
2018-06-29T00:27:09.395Z,83.64
2018-06-29T00:28:09.385Z,83.84
2018-06-29T00:29:09.387Z,83.45
2018-06-29T00:30:09.378Z,83.74
2018-06-29T00:31:09.375Z,83.74
2018-06-29T00:32:09.370Z,83.74
2018-06-29T00:33:09.383Z,84.03
2018-06-29T00:34:09.365Z,83.84
2018-06-29T00:35:09.363Z,83.98
2018-06-29T00:36:09.360Z,83.8
2018-06-29T00:37:09.352Z,83.64
2018-06-29T00:38:09.349Z,84.31
2018-06-29T00:39:09.346Z,84.75
2018-06-29T00:40:09.342Z,84.8
2018-06-29T00:41:09.342Z,84.66
2018-06-29T00:42:09.336Z,84.66
2018-06-29T00:43:09.332Z,85.24
2018-06-29T00:44:09.075Z,84.75
2018-06-29T00:45:09.323Z,84.66
2018-06-29T00:46:09.321Z,84.85
2018-06-29T00:47:09.316Z,84.66
2018-06-29T00:48:09.314Z,85.24
2018-06-29T00:49:09.308Z,85.42
2018-06-29T00:50:09.306Z,85.14
2018-06-29T00:51:09.300Z,85.14
2018-06-29T00:52:09.296Z,85.52
2018-06-29T00:53:09.294Z,85.62
2018-06-29T00:54:09.296Z,85.42
2018-06-29T00:55:09.314Z,85.52
2018-06-29T00:56:09.030Z,85.42
2018-06-29T00:57:09.283Z,85.24
2018-06-29T00:58:09.277Z,85.42
2018-06-29T00:59:09.018Z,85.42
2018-06-29T01:00:09.267Z,85.33
2018-06-29T01:01:09.264Z,86.1
2018-06-29T01:02:09.008Z,86.1
2018-06-29T01:03:09.002Z,85.81
2018-06-29T01:04:09.257Z,85.91
2018-06-29T01:05:09.248Z,85.14
2018-06-29T01:06:08.990Z,85.62
2018-06-29T01:07:09.237Z,85.81
2018-06-29T01:08:09.314Z,86
2018-06-29T01:09:08.978Z,85.81
2018-06-29T01:10:09.231Z,85.81
2018-06-29T01:11:09.227Z,85.77
2018-06-29T01:12:09.217Z,86.05
2018-06-29T01:13:09.216Z,86.25
2018-06-29T01:14:09.209Z,86.34
2018-06-29T01:15:09.208Z,85.86
2018-06-29T01:16:09.210Z,86.15
2018-06-29T01:17:09.201Z,86.44
2018-06-29T01:18:09.197Z,86.34
2018-06-29T01:19:09.193Z,86.63
2018-06-29T01:20:09.186Z,86.63
2018-06-29T01:21:08.940Z,86.34
2018-06-29T01:22:09.177Z,86.25
2018-06-29T01:23:10.854Z,86.15
2018-06-29T01:24:09.171Z,86.25
2018-06-29T01:25:09.165Z,86.54
2018-06-29T01:26:08.911Z,86.54
2018-06-29T01:27:08.905Z,86.25
2018-06-29T01:28:09.153Z,86.44
2018-06-29T01:29:09.149Z,86.44
2018-06-29T01:30:09.148Z,86.54
2018-06-29T01:31:09.144Z,86.25
2018-06-29T01:32:09.143Z,86.44
2018-06-29T01:33:09.170Z,86.44
2018-06-29T01:34:09.129Z,86.44
2018-06-29T01:35:09.121Z,86.34
2018-06-29T01:36:09.119Z,86.34
2018-06-29T01:37:08.866Z,86.54
2018-06-29T01:38:09.113Z,86.92
2018-06-29T01:39:09.106Z,86.25
2018-06-29T01:40:09.170Z,86.92
2018-06-29T01:41:09.097Z,86.25
2018-06-29T01:42:08.841Z,86.92
2018-06-29T01:43:09.097Z,86.78
2018-06-29T01:44:09.090Z,86.68
2018-06-29T01:45:09.083Z,86.72
2018-06-29T01:46:09.076Z,86.58
2018-06-29T01:47:09.073Z,87.07
2018-06-29T01:48:09.068Z,86.58
2018-06-29T01:49:08.814Z,86.54
2018-06-29T01:50:09.057Z,86.58
2018-06-29T01:51:09.055Z,86.01
2018-06-29T01:52:09.086Z,86.3
2018-06-29T01:53:09.052Z,86.05
2018-06-29T01:54:09.044Z,86.01
2018-06-29T01:55:09.073Z,85.82
2018-06-29T01:56:08.783Z,85.72
2018-06-29T01:57:09.029Z,86.05
2018-06-29T01:58:09.026Z,86.15
2018-06-29T01:59:09.021Z,86.15
2018-06-29T02:00:09.021Z,86.44
2018-06-29T02:01:08.759Z,86.01
2018-06-29T02:02:09.008Z,86.01
2018-06-29T02:03:08.752Z,86.34
2018-06-29T02:04:08.999Z,85.86
2018-06-29T02:05:08.994Z,86.34
2018-06-29T02:06:08.739Z,86.11
2018-06-29T02:07:08.986Z,86.21
2018-06-29T02:08:09.152Z,85.96
2018-06-29T02:09:08.980Z,85.86
2018-06-29T02:10:08.975Z,85.82
2018-06-29T02:11:08.970Z,86.01
2018-06-29T02:12:08.712Z,86.3
2018-06-29T02:13:08.963Z,86.01
2018-06-29T02:14:08.961Z,85.96
2018-06-29T02:15:08.950Z,85.92
2018-06-29T02:16:08.948Z,85.82
2018-06-29T02:17:08.943Z,86.54
2018-06-29T02:18:08.686Z,86.01
2018-06-29T02:19:08.940Z,86.4
2018-06-29T02:20:08.931Z,86.01
2018-06-29T02:21:08.927Z,86.01
2018-06-29T02:22:08.922Z,86.01
2018-06-29T02:23:08.916Z,86.4
2018-06-29T02:24:08.925Z,86.3
2018-06-29T02:25:08.923Z,86.3
2018-06-29T02:26:08.906Z,86.4
2018-06-29T02:27:08.648Z,86.88
2018-06-29T02:28:08.895Z,86.78
2018-06-29T02:29:08.905Z,86.88
2018-06-29T02:30:08.892Z,86.58
2018-06-29T02:31:08.882Z,86.68
2018-06-29T02:32:08.626Z,86.58
2018-06-29T02:33:08.878Z,86.68
2018-06-29T02:34:08.871Z,86.68
2018-06-29T02:35:08.874Z,86.88
2018-06-29T02:36:08.611Z,86.97
2018-06-29T02:37:08.610Z,86.88
2018-06-29T02:38:08.602Z,86.78
2018-06-29T02:39:08.847Z,86.78
2018-06-29T02:40:08.591Z,87.55
2018-06-29T02:41:08.838Z,87.55
2018-06-29T02:42:08.835Z,86.68
2018-06-29T02:43:08.832Z,87.35
2018-06-29T02:44:08.828Z,86.68
2018-06-29T02:45:08.574Z,87.16
2018-06-29T02:46:08.816Z,87.45
2018-06-29T02:47:08.810Z,87.16
2018-06-29T02:48:08.815Z,86.78
2018-06-29T02:49:08.808Z,86.68
2018-06-29T02:50:08.547Z,86.68
2018-06-29T02:51:08.796Z,87.12
2018-06-29T02:52:08.791Z,86.78
2018-06-29T02:53:08.531Z,87.16
2018-06-29T02:54:08.783Z,86.68
2018-06-29T02:55:08.775Z,86.68
2018-06-29T02:56:08.788Z,86.68
2018-06-29T02:57:08.774Z,86.68
2018-06-29T02:58:08.765Z,86.78
2018-06-29T02:59:08.505Z,86.83
2018-06-29T03:00:08.763Z,87.45
2018-06-29T03:01:08.761Z,87.55
2018-06-29T03:02:08.492Z,87.35
2018-06-29T03:03:08.486Z,87.45
2018-06-29T03:04:08.740Z,87.35
2018-06-29T03:05:08.735Z,87.26
2018-06-29T03:06:08.726Z,87.35
2018-06-29T03:07:08.469Z,87.41
2018-06-29T03:08:08.717Z,87.45
2018-06-29T03:09:08.462Z,87.31
2018-06-29T03:10:08.455Z,87.45
2018-06-29T03:11:08.705Z,86.88
2018-06-29T03:12:08.752Z,86.68
2018-06-29T03:13:08.444Z,86.88
2018-06-29T03:14:08.437Z,86.88
2018-06-29T03:15:08.434Z,86.68
2018-06-29T03:16:08.681Z,86.88
2018-06-29T03:17:08.678Z,86.97
2018-06-29T03:18:08.672Z,86.97
2018-06-29T03:19:08.667Z,87.07
2018-06-29T03:20:08.413Z,86.49
2018-06-29T03:21:08.660Z,86.97
2018-06-29T03:22:08.655Z,86.3
2018-06-29T03:23:08.905Z,86.4
2018-06-29T03:24:08.650Z,86.4
2018-06-29T03:25:08.739Z,86.01
2018-06-29T03:26:08.384Z,86.21
2018-06-29T03:27:08.632Z,85.82
2018-06-29T03:28:08.628Z,85.86
2018-06-29T03:29:08.629Z,85.19
2018-06-29T03:30:08.623Z,85.38
2018-06-29T03:31:08.364Z,84.52
2018-06-29T03:32:08.359Z,84.75
2018-06-29T03:33:08.795Z,84.08
2018-06-29T03:34:08.351Z,83.98
2018-06-29T03:35:08.350Z,83.6
2018-06-29T03:36:08.609Z,82.93
2018-06-29T03:37:08.340Z,82.64
2018-06-29T03:38:08.336Z,82.2
2018-06-29T03:39:08.331Z,82.59
2018-06-29T03:40:08.328Z,81.82
2018-06-29T03:41:08.576Z,81.72
2018-06-29T03:42:08.574Z,81.28
2018-06-29T03:43:08.578Z,81.09
2018-06-29T03:44:08.316Z,80.71
2018-06-29T03:45:08.568Z,79.98
2018-06-29T03:46:08.561Z,80.17
2018-06-29T03:47:08.559Z,79.79
2018-06-29T03:48:08.573Z,79.5
2018-06-29T03:49:08.303Z,78.58
2018-06-29T03:50:08.557Z,77.81
2018-06-29T03:51:08.553Z,77.51
2018-06-29T03:52:08.548Z,76.94
2018-06-29T03:53:08.545Z,76.31
2018-06-29T03:54:08.540Z,76.88
2018-06-29T03:55:08.289Z,75.63
2018-06-29T03:56:08.540Z,75.19
2018-06-29T03:57:08.539Z,74.99
2018-06-29T03:58:08.285Z,73.65
2018-06-29T03:59:08.284Z,73.2
2018-06-29T04:00:08.534Z,71.95
2018-06-29T04:01:08.539Z,71.47
2018-06-29T04:02:08.534Z,71.12
2018-06-29T04:03:08.533Z,70.83
2018-06-29T04:04:08.532Z,69.9
2018-06-29T04:05:08.528Z,69.32
2018-06-29T04:06:08.560Z,67.52
2018-06-29T04:07:08.277Z,66.75
2018-06-29T04:08:08.531Z,65.53
2018-06-29T04:09:08.529Z,64.66
2018-06-29T04:10:08.277Z,64.5
2018-06-29T04:11:08.531Z,63.53
2018-06-29T04:12:08.541Z,63.05
2018-06-29T04:13:08.530Z,62.89
2018-06-29T04:14:08.279Z,61.83
2018-06-29T04:15:08.533Z,61.83
2018-06-29T04:16:08.540Z,61.66
2018-06-29T04:17:08.535Z,60.31
2018-06-29T04:18:08.537Z,59.08
2018-06-29T04:19:08.540Z,57.54
2018-06-29T04:20:08.540Z,56.5
2018-06-29T04:21:08.290Z,56.5
2018-06-29T04:22:08.545Z,56.79
2018-06-29T04:23:08.547Z,55.85
2018-06-29T04:24:08.553Z,55.17
2018-06-29T04:25:08.802Z,54.69
2018-06-29T04:26:08.556Z,55.76
2018-06-29T04:27:08.574Z,54.79
2018-06-29T04:28:08.563Z,53.85
2018-06-29T04:29:08.568Z,53.07
2018-06-29T04:30:08.571Z,52.97
2018-06-29T04:31:08.574Z,52.87
2018-06-29T04:32:08.577Z,52.71
2018-06-29T04:33:08.581Z,51.74
2018-06-29T04:34:08.589Z,51.84
2018-06-29T04:35:08.589Z,52.12
2018-06-29T04:36:08.601Z,51.25
2018-06-29T04:37:08.347Z,50.67
2018-06-29T04:38:08.603Z,50.31
2018-06-29T04:39:08.608Z,50.21
2018-06-29T04:40:08.613Z,50.21
2018-06-29T04:41:08.617Z,49.82
2018-06-29T04:42:08.626Z,48.76
2018-06-29T04:43:08.632Z,49.07
2018-06-29T04:44:08.639Z,49.07
2018-06-29T04:45:08.644Z,48.78
2018-06-29T04:46:08.644Z,48.85
2018-06-29T04:47:08.649Z,48.78
2018-06-29T04:48:08.404Z,48.88
2018-06-29T04:49:08.409Z,48.97
2018-06-29T04:50:08.668Z,49.07
2018-06-29T04:51:08.675Z,48.78
2018-06-29T04:52:08.679Z,49.07
2018-06-29T04:53:08.436Z,48.69
2018-06-29T04:54:08.691Z,48.32
2018-06-29T04:55:08.706Z,48.22
2018-06-29T04:56:08.704Z,47.76
2018-06-29T04:57:08.457Z,47.38
2018-06-29T04:58:08.716Z,47.49
2018-06-29T04:59:08.729Z,46.52
2018-06-29T05:00:08.477Z,46.45
2018-06-29T05:01:08.739Z,45.87
2018-06-29T05:02:08.493Z,45.97
2018-06-29T05:03:08.755Z,45.57
2018-06-29T05:04:08.762Z,45.69
2018-06-29T05:05:08.515Z,45.01
2018-06-29T05:06:08.774Z,45.32
2018-06-29T05:07:08.529Z,44.67
2018-06-29T05:08:08.791Z,43.7
2018-06-29T05:09:08.795Z,42.65
2018-06-29T05:10:08.552Z,41.32
2018-06-29T05:11:08.810Z,40.37
2018-06-29T05:12:08.819Z,41.05
2018-06-29T05:13:08.576Z,40.37
2018-06-29T05:14:08.583Z,40.39
2018-06-29T05:15:08.853Z,39.9
2018-06-29T05:16:08.853Z,39.51
2018-06-29T05:17:08.866Z,39.12
2018-06-29T05:18:08.872Z,39.8
2018-06-29T05:19:08.882Z,39.22
2018-06-29T05:20:08.889Z,39.12
2018-06-29T05:21:08.647Z,39.61
2018-06-29T05:22:08.909Z,40.37
2018-06-29T05:23:08.921Z,40.47
2018-06-29T05:24:08.926Z,40.27
2018-06-29T05:25:08.935Z,40.17
2018-06-29T05:26:08.956Z,40.17
2018-06-29T05:27:09.021Z,40.27
2018-06-29T05:28:08.963Z,40.17
2018-06-29T05:29:08.972Z,40.08
2018-06-29T05:30:08.985Z,39.78
2018-06-29T05:31:08.742Z,39.39
2018-06-29T05:32:09.000Z,39.2
2018-06-29T05:33:09.011Z,40.09
2018-06-29T05:34:08.796Z,40.08
2018-06-29T05:35:09.035Z,40.37
2018-06-29T05:36:09.040Z,39.88
2018-06-29T05:37:09.051Z,38.92
2018-06-29T05:38:09.060Z,39.02
2018-06-29T05:39:09.074Z,38.82
2018-06-29T05:40:09.082Z,38.92
2018-06-29T05:41:09.090Z,38.55
2018-06-29T05:42:08.850Z,38.57
2018-06-29T05:43:08.862Z,38.28
2018-06-29T05:44:08.869Z,37.79
2018-06-29T05:45:09.135Z,37.62
2018-06-29T05:46:08.935Z,37.63
2018-06-29T05:47:09.169Z,37.63
2018-06-29T05:48:09.168Z,36.94
2018-06-29T05:49:09.176Z,37.24
2018-06-29T05:50:09.191Z,37.43
2018-06-29T05:51:08.948Z,36.67
2018-06-29T05:52:08.954Z,36.59
2018-06-29T05:53:09.784Z,36.49
2018-06-29T05:54:09.228Z,35.81
2018-06-29T05:55:09.243Z,35.04
2018-06-29T05:56:09.255Z,35.14
2018-06-29T05:57:09.265Z,35.83
2018-06-29T05:58:09.277Z,35.14
2018-06-29T05:59:09.287Z,35.61
2018-06-29T06:00:09.303Z,36.2
2018-06-29T06:01:09.309Z,37.06
2018-06-29T06:02:09.558Z,37.54
2018-06-29T06:03:09.349Z,37.34
2018-06-29T06:04:09.350Z,37.52
2018-06-29T06:05:09.359Z,37.71
2018-06-29T06:06:09.370Z,36.85
2018-06-29T06:07:09.385Z,36.18
2018-06-29T06:08:09.394Z,36.69
2018-06-29T06:09:09.168Z,35.53
2018-06-29T06:10:09.203Z,34.88
2018-06-29T06:11:09.432Z,34.21
2018-06-29T06:12:09.454Z,34.59
2018-06-29T06:13:09.458Z,34.39
2018-06-29T06:14:09.219Z,34.41
2018-06-29T06:15:09.487Z,33.92
2018-06-29T06:16:09.702Z,33.62
2018-06-29T06:17:09.506Z,33.74
2018-06-29T06:18:09.521Z,32.48
2018-06-29T06:19:09.533Z,32.01
2018-06-29T06:20:09.551Z,32.31
2018-06-29T06:21:09.560Z,31.92
2018-06-29T06:22:09.585Z,32.12
2018-06-29T06:23:09.588Z,31.92
2018-06-29T06:24:09.350Z,31.84
2018-06-29T06:25:09.703Z,31.57
2018-06-29T06:26:09.635Z,30.51
2018-06-29T06:27:09.392Z,30.22
2018-06-29T06:28:09.408Z,29.16
2018-06-29T06:29:09.674Z,28.88
2018-06-29T06:30:09.696Z,29.57
2018-06-29T06:31:09.717Z,29.48
2018-06-29T06:32:09.720Z,29
2018-06-29T06:33:09.860Z,28.42
2018-06-29T06:34:09.518Z,27.15
2018-06-29T06:35:09.769Z,27.08
2018-06-29T06:36:09.786Z,25.5
2018-06-29T06:37:09.802Z,25.4
2018-06-29T06:38:09.844Z,26.19
2018-06-29T06:39:09.835Z,26.56
2018-06-29T06:40:09.857Z,26.65
2018-06-29T06:41:09.874Z,26.93
2018-06-29T06:42:09.886Z,27.03
2018-06-29T06:43:09.905Z,27.13
2018-06-29T06:44:09.921Z,26.94
2018-06-29T06:45:09.687Z,26.84
2018-06-29T06:46:09.705Z,27.44
2018-06-29T06:47:09.988Z,27.04
2018-06-29T06:48:09.992Z,26.56
2018-06-29T06:49:10.021Z,25.89
2018-06-29T06:50:10.027Z,25.68
2018-06-29T06:51:10.053Z,25.68
2018-06-29T06:52:10.066Z,26.26
2018-06-29T06:53:10.098Z,26.94
2018-06-29T06:54:10.098Z,27.13
2018-06-29T06:55:09.869Z,27.23
2018-06-29T06:56:10.137Z,26.07
2018-06-29T06:57:10.156Z,25.87
2018-06-29T06:58:10.175Z,26.07
2018-06-29T06:59:10.193Z,26.26
2018-06-29T07:00:10.231Z,26.75
2018-06-29T07:01:10.234Z,26.73
2018-06-29T07:02:10.254Z,26.45
2018-06-29T07:03:10.269Z,26.65
2018-06-29T07:04:10.036Z,26.45
2018-06-29T07:05:10.317Z,26.35
2018-06-29T07:06:10.320Z,25.77
2018-06-29T07:07:10.342Z,25.31
2018-06-29T07:08:10.108Z,25.68
2018-06-29T07:09:10.382Z,25.68
2018-06-29T07:10:10.415Z,25.48
2018-06-29T07:11:10.164Z,25.87
2018-06-29T07:12:10.431Z,25.68
2018-06-29T07:13:10.201Z,26.26
2018-06-29T07:14:10.489Z,25.29
2018-06-29T07:15:10.489Z,25.19
2018-06-29T07:16:10.506Z,26.26
2018-06-29T07:17:10.529Z,26.24
2018-06-29T07:18:10.593Z,26.72
2018-06-29T07:19:10.568Z,27
2018-06-29T07:20:10.599Z,27.1
2018-06-29T07:21:10.600Z,27.11
2018-06-29T07:22:10.617Z,26.42
2018-06-29T07:23:10.636Z,26.04
2018-06-29T07:24:10.657Z,25.37
2018-06-29T07:25:10.423Z,25.56
2018-06-29T07:26:10.698Z,26.15
2018-06-29T07:27:10.717Z,25.76
2018-06-29T07:28:10.499Z,26.64
2018-06-29T07:29:10.775Z,26.93
2018-06-29T07:30:10.880Z,25.74
2018-06-29T07:31:10.788Z,25.86
2018-06-29T07:32:11.057Z,25.87
2018-06-29T07:33:10.824Z,25.48
2018-06-29T07:34:10.855Z,26.06
2018-06-29T07:35:10.872Z,26.72
2018-06-29T07:36:10.881Z,26.72
2018-06-29T07:37:10.905Z,26.81
2018-06-29T07:38:10.923Z,26.61
2018-06-29T07:39:10.942Z,26.23
2018-06-29T07:40:10.961Z,26.92
2018-06-29T07:41:11.187Z,26.83
2018-06-29T07:42:10.743Z,26.06
2018-06-29T07:43:11.032Z,24.9
2018-06-29T07:44:10.779Z,24.81
2018-06-29T07:45:11.053Z,24.91
2018-06-29T07:46:11.074Z,24.91
2018-06-29T07:47:11.137Z,24.51
2018-06-29T07:48:11.106Z,25.31
2018-06-29T07:49:11.126Z,24.99
2018-06-29T07:50:11.147Z,25.87
2018-06-29T07:51:10.912Z,25.48
2018-06-29T07:52:11.185Z,26.06
2018-06-29T07:53:11.227Z,26.34
2018-06-29T07:54:11.220Z,26.9
2018-06-29T07:55:11.239Z,26.71
2018-06-29T07:56:11.080Z,26.71
2018-06-29T07:57:11.361Z,26.99
2018-06-29T07:58:11.478Z,27.68
2018-06-29T07:59:11.314Z,28.06
2018-06-29T08:00:11.329Z,28.06
2018-06-29T08:01:11.345Z,28.16
2018-06-29T08:02:11.409Z,27.95
2018-06-29T08:03:11.628Z,28.13
2018-06-29T08:04:11.142Z,28.82
2018-06-29T08:05:11.411Z,28.92
2018-06-29T08:06:11.427Z,28.72
2018-06-29T08:07:11.450Z,28.92
2018-06-29T08:08:11.464Z,28.72
2018-06-29T08:09:11.476Z,28.81
2018-06-29T08:10:11.491Z,29.58
2018-06-29T08:11:11.510Z,30.04
2018-06-29T08:12:11.274Z,30.33
2018-06-29T08:13:11.537Z,30.05
2018-06-29T08:14:11.562Z,30.35
2018-06-29T08:15:11.567Z,30.84
2018-06-29T08:16:11.584Z,31.32
2018-06-29T08:17:11.600Z,30.24
2018-06-29T08:18:11.642Z,30.63
2018-06-29T08:19:11.633Z,30.53
2018-06-29T08:20:11.392Z,30.53
2018-06-29T08:21:11.407Z,30.53
2018-06-29T08:22:11.675Z,30.81
2018-06-29T08:23:11.438Z,31.2
2018-06-29T08:24:11.743Z,31.97
2018-06-29T08:25:11.468Z,31.6
2018-06-29T08:26:11.739Z,31.3
2018-06-29T08:27:11.498Z,30.91
2018-06-29T08:28:11.766Z,31.4
2018-06-29T08:29:11.529Z,31.19
2018-06-29T08:30:11.796Z,31.29
2018-06-29T08:31:11.811Z,31.38
2018-06-29T08:32:11.826Z,31.86
2018-06-29T08:33:11.842Z,31.76
2018-06-29T08:34:12.114Z,31.67
2018-06-29T08:35:11.871Z,31.38
2018-06-29T08:36:11.635Z,31.29
2018-06-29T08:37:11.648Z,30.62
2018-06-29T08:38:12.121Z,30.71
2018-06-29T08:39:12.141Z,30.12
2018-06-29T08:40:11.693Z,30.12
2018-06-29T08:41:11.962Z,30.52
2018-06-29T08:42:11.976Z,30.53
2018-06-29T08:43:11.998Z,29.96
2018-06-29T08:44:12.145Z,29.37
2018-06-29T08:45:12.026Z,30.17
2018-06-29T08:46:12.037Z,29.96
2018-06-29T08:47:12.389Z,30.35
2018-06-29T08:48:12.080Z,29.66
2018-06-29T08:49:12.104Z,29.66
2018-06-29T08:50:12.121Z,29.27
2018-06-29T08:51:12.118Z,29.85
2018-06-29T08:52:12.287Z,30.32
2018-06-29T08:53:12.610Z,30.21
2018-06-29T08:54:12.173Z,30.99
2018-06-29T08:55:12.264Z,31.29
2018-06-29T08:56:12.204Z,31.27
2018-06-29T08:57:12.202Z,31.27
2018-06-29T08:58:12.219Z,31.37
2018-06-29T08:59:12.236Z,31.76
2018-06-29T09:00:11.993Z,31.86
2018-06-29T09:01:12.257Z,32.34
2018-06-29T09:02:12.273Z,32.35
2018-06-29T09:03:12.284Z,31.57
2018-06-29T09:04:12.298Z,31.84
2018-06-29T09:05:12.566Z,32.51
2018-06-29T09:06:12.346Z,32.2
2018-06-29T09:07:12.087Z,33.36
2018-06-29T09:08:12.551Z,33.84
2018-06-29T09:09:12.107Z,35.19
2018-06-29T09:10:12.403Z,34.97
2018-06-29T09:11:12.134Z,36.33
2018-06-29T09:12:12.170Z,36.13
2018-06-29T09:13:12.408Z,36.9
2018-06-29T09:14:12.419Z,37.27
2018-06-29T09:15:12.423Z,38.24
2018-06-29T09:16:12.433Z,37.37
2018-06-29T09:17:12.443Z,38.34
2018-06-29T09:18:12.450Z,38.12
2018-06-29T09:19:12.607Z,37.83
2018-06-29T09:20:12.473Z,37.93
2018-06-29T09:21:12.494Z,38.4
2018-06-29T09:22:12.485Z,38.4
2018-06-29T09:23:12.496Z,38.1
2018-06-29T09:24:12.502Z,38.1
2018-06-29T09:25:12.262Z,38.67
2018-06-29T09:26:12.538Z,38.96
2018-06-29T09:27:25.252Z,37.99
2018-06-29T09:28:12.531Z,38.96
2018-06-29T09:29:12.534Z,38.48
2018-06-29T09:30:12.546Z,38.87
2018-06-29T09:31:12.547Z,38.85
2018-06-29T09:32:12.566Z,38.95
2018-06-29T09:33:12.578Z,38.95
2018-06-29T09:34:12.313Z,38.95
2018-06-29T09:35:12.571Z,39.14
2018-06-29T09:36:12.853Z,37.97
2018-06-29T09:37:12.587Z,38.46
2018-06-29T09:38:12.336Z,38.64
2018-06-29T09:39:12.603Z,39.12
2018-06-29T09:40:12.348Z,38.95
2018-06-29T09:41:12.602Z,39.8
2018-06-29T09:42:12.608Z,40.19
2018-06-29T09:43:12.633Z,40.29
2018-06-29T09:44:12.630Z,40.27
2018-06-29T09:45:12.624Z,40.17
2018-06-29T09:46:12.636Z,39.2
2018-06-29T09:47:12.647Z,38.73
2018-06-29T09:48:12.801Z,38.64
2018-06-29T09:49:12.683Z,38.54
2018-06-29T09:50:12.650Z,38.64
2018-06-29T09:51:12.657Z,39.8
2018-06-29T09:52:25.480Z,40.39
2018-06-29T09:53:12.662Z,39.9
2018-06-29T09:54:12.669Z,39.8
2018-06-29T09:55:12.674Z,39.61
2018-06-29T09:56:12.440Z,39.14
2018-06-29T09:57:12.688Z,39.14
2018-06-29T09:58:12.702Z,38.46
2018-06-29T09:59:12.701Z,38.26
2018-06-29T10:00:12.444Z,37.97
2018-06-29T10:01:12.871Z,38.46
2018-06-29T10:02:12.705Z,38.07
2018-06-29T10:03:12.710Z,38.36
2018-06-29T10:04:12.464Z,38.17
2018-06-29T10:05:12.721Z,37.79
2018-06-29T10:06:12.474Z,37.41
2018-06-29T10:07:12.730Z,36.94
2018-06-29T10:08:12.735Z,37.33
2018-06-29T10:09:12.749Z,37.33
2018-06-29T10:10:12.747Z,37.13
2018-06-29T10:11:12.751Z,36.27
2018-06-29T10:12:12.757Z,36.76
2018-06-29T10:13:12.794Z,36.27
2018-06-29T10:14:12.897Z,35.88
2018-06-29T10:15:12.773Z,36.08
2018-06-29T10:16:25.513Z,36.47
2018-06-29T10:17:12.786Z,36.08
2018-06-29T10:18:12.792Z,35.78
2018-06-29T10:19:12.797Z,36.37
2018-06-29T10:20:13.200Z,34.81
2018-06-29T10:21:12.560Z,35.39
2018-06-29T10:22:13.032Z,35.69
2018-06-29T10:23:12.837Z,35.39
2018-06-29T10:24:12.894Z,34.91
2018-06-29T10:25:12.939Z,34.81
2018-06-29T10:26:12.855Z,34.42
2018-06-29T10:27:12.853Z,34.61
2018-06-29T10:28:13.285Z,34.69
2018-06-29T10:29:12.857Z,35.08
2018-06-29T10:30:12.863Z,34.01
2018-06-29T10:31:15.357Z,34.31
2018-06-29T10:32:12.901Z,34.69
2018-06-29T10:33:12.879Z,34.69
2018-06-29T10:34:12.888Z,35.28
2018-06-29T10:35:12.892Z,34.79
2018-06-29T10:36:12.905Z,34.99
2018-06-29T10:37:12.901Z,35
2018-06-29T10:38:12.672Z,34.91
2018-06-29T10:39:12.659Z,35.69
2018-06-29T10:40:12.921Z,36.66
2018-06-29T10:41:12.924Z,36.27
2018-06-29T10:42:12.941Z,35.88
2018-06-29T10:43:12.681Z,35.61
2018-06-29T10:44:12.944Z,34.73
2018-06-29T10:45:12.949Z,35.02
2018-06-29T10:46:12.966Z,34.14
2018-06-29T10:47:12.959Z,33.36
2018-06-29T10:48:12.710Z,34.05
2018-06-29T10:49:12.970Z,33.36
2018-06-29T10:50:12.722Z,33.25
2018-06-29T10:51:12.729Z,33.73
2018-06-29T10:52:12.997Z,33.15
2018-06-29T10:53:13.006Z,34.03
2018-06-29T10:54:13.017Z,33.93
2018-06-29T10:55:12.752Z,32.96
2018-06-29T10:56:13.030Z,32.48
2018-06-29T10:57:13.022Z,31.7
2018-06-29T10:58:13.054Z,31.99
2018-06-29T10:59:13.028Z,32.96
2018-06-29T11:00:12.785Z,32.67
2018-06-29T11:01:13.039Z,33.06
2018-06-29T11:02:13.047Z,33.04
2018-06-29T11:03:13.049Z,33.25
2018-06-29T11:04:13.078Z,33.23
2018-06-29T11:05:13.059Z,33.33
2018-06-29T11:06:13.072Z,35.47
2018-06-29T11:07:12.828Z,35.67
2018-06-29T11:08:13.090Z,35.57
2018-06-29T11:09:13.092Z,34.89
2018-06-29T11:10:12.842Z,35.28
2018-06-29T11:11:13.103Z,35.18
2018-06-29T11:12:13.102Z,35.08
2018-06-29T11:13:13.103Z,35.47
2018-06-29T11:14:13.328Z,35.96
2018-06-29T11:15:13.121Z,35.96
2018-06-29T11:16:13.123Z,36.47
2018-06-29T11:17:13.125Z,36.76
2018-06-29T11:18:12.881Z,36.78
2018-06-29T11:19:12.887Z,35.51
2018-06-29T11:20:13.145Z,35.8
2018-06-29T11:21:13.161Z,36.68
2018-06-29T11:22:13.160Z,36.78
2018-06-29T11:23:13.168Z,36.76
2018-06-29T11:24:12.912Z,36.57
2018-06-29T11:25:13.172Z,36.27
2018-06-29T11:26:13.176Z,36.76
2018-06-29T11:27:13.181Z,36.96
2018-06-29T11:28:13.189Z,36.86
2018-06-29T11:29:13.192Z,37.35
2018-06-29T11:30:13.251Z,37.35
2018-06-29T11:31:13.238Z,37.05
2018-06-29T11:32:12.957Z,36.86
2018-06-29T11:33:13.218Z,35.61
2018-06-29T11:34:13.219Z,35.8
2018-06-29T11:35:13.233Z,34.73
2018-06-29T11:36:13.254Z,34.92
2018-06-29T11:37:13.004Z,35.02
2018-06-29T11:38:13.251Z,35.12
2018-06-29T11:39:12.996Z,35.22
2018-06-29T11:40:13.254Z,34.83
2018-06-29T11:41:13.008Z,34.44
2018-06-29T11:42:13.265Z,34.53
2018-06-29T11:43:13.273Z,34.24
2018-06-29T11:44:13.107Z,33.48
2018-06-29T11:45:13.288Z,33.09
2018-06-29T11:46:13.496Z,32.52
2018-06-29T11:47:13.302Z,32.62
2018-06-29T11:48:13.312Z,30.08
2018-06-29T11:49:13.317Z,30.48
2018-06-29T11:50:13.320Z,29.31
2018-06-29T11:51:13.067Z,29.8
2018-06-29T11:52:13.073Z,29.9
2018-06-29T11:53:13.331Z,29.21
2018-06-29T11:54:13.343Z,29.11
2018-06-29T11:55:13.345Z,29.5
2018-06-29T11:56:13.359Z,29.41
2018-06-29T11:57:13.358Z,29.79
2018-06-29T11:58:13.376Z,29.11
2018-06-29T11:59:13.119Z,29.31
2018-06-29T12:00:13.381Z,30.29
2018-06-29T12:01:13.132Z,30.37
2018-06-29T12:02:13.396Z,30.18
2018-06-29T12:03:13.397Z,29.88
2018-06-29T12:04:13.404Z,29.88
2018-06-29T12:05:13.410Z,29.98
2018-06-29T12:06:13.177Z,29.98
2018-06-29T12:07:13.611Z,30.37
2018-06-29T12:08:13.434Z,30.09
2018-06-29T12:09:13.439Z,30.18
2018-06-29T12:10:13.447Z,30.29
2018-06-29T12:11:13.464Z,30.76
2018-06-29T12:12:13.468Z,31.05
2018-06-29T12:13:13.474Z,31.15
2018-06-29T12:14:13.473Z,31.15
2018-06-29T12:15:13.475Z,31.05
2018-06-29T12:16:13.486Z,30.96
2018-06-29T12:17:13.488Z,31.54
2018-06-29T12:18:13.251Z,31.35
2018-06-29T12:19:13.253Z,31.25
2018-06-29T12:20:13.526Z,32.32
2018-06-29T12:21:13.565Z,32.42
2018-06-29T12:22:13.520Z,31.35
2018-06-29T12:23:13.542Z,31.16
2018-06-29T12:24:13.289Z,31.36
2018-06-29T12:25:13.540Z,31.07
2018-06-29T12:26:13.552Z,31.07
2018-06-29T12:27:13.312Z,31.56
2018-06-29T12:28:13.575Z,31.46
2018-06-29T12:29:13.567Z,32.14
2018-06-29T12:30:13.573Z,32.42
2018-06-29T12:31:13.576Z,32.71
2018-06-29T12:32:13.331Z,32.91
2018-06-29T12:33:13.588Z,32.62
2018-06-29T12:34:13.604Z,32.79
2018-06-29T12:35:13.605Z,32.79
2018-06-29T12:36:13.606Z,33.07
2018-06-29T12:37:13.613Z,33.17
2018-06-29T12:38:13.620Z,33.36
2018-06-29T12:39:13.630Z,33.56
2018-06-29T12:40:13.640Z,34.42
2018-06-29T12:41:13.640Z,34.63
2018-06-29T12:42:13.651Z,34.53
2018-06-29T12:43:13.649Z,34.63
2018-06-29T12:44:13.655Z,34.44
2018-06-29T12:45:13.668Z,34.91
2018-06-29T12:46:13.732Z,34.92
2018-06-29T12:47:13.674Z,34.42
2018-06-29T12:48:13.688Z,34.71
2018-06-29T12:49:13.688Z,35
2018-06-29T12:50:13.703Z,35.86
2018-06-29T12:51:13.694Z,36.08
2018-06-29T12:52:13.706Z,35.88
2018-06-29T12:53:13.726Z,36.18
2018-06-29T12:54:13.457Z,36.37
2018-06-29T12:55:13.726Z,35.98